Details From OMRK - Ras Al Khaimah Intl
To OIKB - Bandar Abbass Intl
Flight Number -
Tags Decoded
Created
Modified
Stats Distance 97 nm / 180 km
Max Altitude 0 ft / 0 m
Waypoints 2
Social Downloads 1
Likes 0
Share VATSIM

Download

Looking for another format? Having issues loading an existing format? Contact us
Advertisement - Login to hide

Notes

Decoded

Route

OMRK OIKB

ID Type Via Altitude Latitude Longitude Leg Dist Tot Dist Heading (true) Name
O OMRK APT - 0 ft / 0 m 25.62974˚ 55.93391˚ - 0 nm - -
O OIKB APT - 0 ft / 0 m 27.20505˚ 56.36861˚ 97 nm 97 nm 14° / 14° -

Altitude Profile

Advertisement - Login to hide

OMRK

Details ICAO OMRK (RKT)
Name RAS AL KHAIMAH INTL
Region United Arab Emirates
Timezone Asia/Dubai (UTC+4.0)
Stats Elevation 102 ft / 31 m (AMSL)
Location 25.613352° 55.938831°
Runways 1
Magnetic Variation 2.053° E

METAR

OMRK 140400Z 30003KT CAVOK 13/06 Q1019 A3010

Decode

TAF

TAF OMRK 132301Z 1400/1506 11007KT 8000 NSC PROB30 TEMPO 1404/1412 11018KT 4000 BLDU BECMG 1410/1412 34013KT BECMG 1412/1414 13008KT

Decode

Departure Runways

ID Width Length Bearing (true) Bearing (mag) Surface Threshold Offset Overrun Length
16 148 ft / 45 m 12,391 ft / 3,777 m 164.83° 162.78° Asphalt 0 ft / 0 m 165 ft / 50 m
34 148 ft / 45 m 12,391 ft / 3,777 m 344.84° 342.79° Asphalt 0 ft / 0 m 165 ft / 50 m

OIKB

Details ICAO OIKB (BND)
Name BANDAR ABBASS INTL
Region Iran
Timezone Asia/Tehran (UTC+3.5)
Stats Elevation 22 ft / 7 m (AMSL)
Location 27.218316° 56.377852°
Runways 2
Magnetic Variation 2.316° E

METAR

OIKB 140430Z 35006KT CAVOK 16/M06 Q1019 A3011

Decode

TAF

TAF OIKB 131730Z 1318/1424 32004MPS 7000 NSC TEMPO 1408/1415 07008MPS PROB30 4000 SA

Decode

Destination Runways

ID Width Length Bearing (true) Bearing (mag) Surface Threshold Offset Overrun Length
03L 98 ft / 30 m 11,370 ft / 3,466 m 27.64° 25.32° Asphalt 0 ft / 0 m 984 ft / 300 m
03R 148 ft / 45 m 12,040 ft / 3,670 m 27.64° 25.32° Asphalt 0 ft / 0 m 1,198 ft / 365 m
21L 148 ft / 45 m 12,040 ft / 3,670 m 207.65° 205.33° Asphalt 0 ft / 0 m 1,198 ft / 365 m
21R 98 ft / 30 m 11,370 ft / 3,466 m 207.64° 205.32° Asphalt 0 ft / 0 m 0 ft / 0 m

Approach Navaids

Runway Type Ident Frequency Range Bearing (true) Bearing (mag) Slope Elevation
21L Localiser IBND 109.90 MHz 18 nm / 33 km 208.03° 205.71° - 3 ft / 1 m (AMSL)
21L Glidescope IBND 109.90 MHz 10 nm / 19 km 207.64° 205.33° 2.98° 12 ft / 4 m (AMSL)
21L DME IBND 109.90 MHz 18 nm / 33 km - - - 12 ft / 4 m (AMSL)